Mercer, WI

1:23 PM CST on February 08, 2016 (GMT -0600)
Pine Lake | | Change Station
CLOSE
Current Station
Personal Weather Station
Location: Hurley, WI
Elevation: 1604 ft
Nearby Weather Stations

Elev 1604 ft 46.25 °N, 90.13 °W | Updated 2 seconds ago

Snow
Snow
18.0 °F
Feels Like 18 °F
N
0.0
Wind Variable Wind from SE
Gusts 0.0 mph

Today
High -- | Low -- °F
--% Chance of Precip.
Yesterday
High -- | Low -- °F
Precip. -- in
Pressure 29.71 in
Visibility 1.8 miles
Clouds Overcast 1700 ft
Windchill 18 °F
Dew Point 7 °F
Humidity 61%
Rainfall 0.00 in
Snow Depth Not available.
7:14 AM 5:15 PM
New Moon, 0% visible
METAR KD25 081855Z AUTO 32010KT 1 3/4SM -SN OVC017 M08/M11 A2971 RMK AO2 T10851110
Pressure 29.71 in
Visibility 1.8 miles
Clouds Overcast 1700 ft
Windchill 18 °F
Dew Point 7 °F
Humidity 61%
Rainfall 0.00 in
Snow Depth Not available.
7:14 AM 5:15 PM
New Moon, 0% visible
METAR KD25 081855Z AUTO 32010KT 1 3/4SM -SN OVC017 M08/M11 A2971 RMK AO2 T10851110

10-Day Weather Forecast

Almanac

Astronomy

Feb. 08, 2016 Rise Set
Actual Time
Civil Twilight
Nautical Twilight
Astronomical Twilight
Moon
Length of Visible Light
Length of Day
Tomorrow will be .
, % of the Moon is Illuminated

Today's Extremes

State Highs State Lows

Community

WunderPhotos

Upload Photos

1,891,499 photos uploaded!

WunderBlog® & News

Nearby

Air Quality

  Air Quality AQ Index Pollutant
Not available.

Snow Depth

Station Depth Elevation

Earthquake Activity

City Distance Mag. Time & Date
Minimum magnitude displayed is 2.5.

Coastal Water Temperatures

Place Temperature

Stations

Nearby Weather Stations

Station Location Temp. Windchill Dew Point Humidity Wind Precip. Elev Updated Type
                   

Watches & Warnings

Winter Weather Advisory
Issued: 12:59 PM CST Feb. 8, 2016 – National Weather Service

... Winter Weather Advisory remains in effect until 6 am CST
Tuesday...

* timing... snow continues through tonight.

* Precipitation rates... the heaviest snowfall rates will occur
tonight.

* Snow accumulations... additional snow accumulation of 1 to 3
inches... with localized amounts up to 6 inches along the higher
terrain of the Gogebic Range in northern Iron and Ashland
counties.

* Winds / visibilities... winds gusting as high as 35 mph will
cause patchy blowing and drifting snow... especially in open
areas. In addition... some reductions to visibility are
expected.

* Impacts... be prepared for slippery roads and changing conditions
due to heavy snowfall at times and blowing snow.

Precautionary/preparedness actions...

A Winter Weather Advisory for snow means periods of snow will
cause primarily travel difficulties. Be prepared for snow covered
roads and limited visibilities... and use caution while driving.
The latest Road conditions for the state you are calling from can
be obtained by calling 5 1 1.


Jjm